Time;durP1;ratioP1;P1;durP2;ratioP2;P2;SDS_P1;SDS_P2;PMS_P1;PMS_P2;Temp;Humidity;BMP_temperature;BMP_pressure;BME280_temperature;BME280_humidity;BME280_pressure;Samples;Min_cycle;Max_cycle;Signal;HPM_P1;HPM_P2
2022/10/24 00:00:57;;;;;;;4.93;1.95;;;14.40;99.90;;;;;;5077048;28;20201;-87
2022/10/24 00:03:25;;;;;;;4.07;1.88;;;14.40;99.90;;;;;;5075300;28;20244;-89
2022/10/24 00:05:52;;;;;;;6.67;2.00;;;14.40;99.90;;;;;;5085929;28;20295;-87
2022/10/24 00:08:19;;;;;;;6.22;2.33;;;14.40;99.90;;;;;;5097665;28;20197;-88
2022/10/24 00:10:48;;;;;;;4.20;1.97;;;14.40;99.90;;;;;;5097525;28;20525;-89
2022/10/24 00:13:16;;;;;;;4.20;1.70;;;14.40;99.90;;;;;;5096626;28;20225;-89
2022/10/24 00:15:45;;;;;;;5.27;2.37;;;14.40;99.90;;;;;;5096688;28;20192;-85
2022/10/24 00:18:13;;;;;;;5.38;2.15;;;14.40;99.90;;;;;;5085069;28;20189;-85
2022/10/24 00:20:40;;;;;;;6.27;2.23;;;14.40;99.90;;;;;;5090769;28;20212;-89
2022/10/24 00:23:08;;;;;;;5.03;2.50;;;14.40;99.90;;;;;;5096832;28;20225;-90
2022/10/24 00:25:35;;;;;;;6.63;2.37;;;14.50;99.90;;;;;;5097300;28;20288;-88
2022/10/24 00:28:02;;;;;;;4.87;2.20;;;14.50;99.90;;;;;;5077164;28;20201;-85
2022/10/24 00:30:29;;;;;;;7.40;2.60;;;14.50;99.90;;;;;;5076034;28;20585;-87
2022/10/24 00:32:56;;;;;;;6.00;2.77;;;14.50;99.90;;;;;;5075008;28;20307;-88
2022/10/24 00:35:24;;;;;;;7.97;2.47;;;14.60;99.90;;;;;;5077187;28;20281;-87
2022/10/24 00:37:51;;;;;;;11.73;2.83;;;14.60;99.90;;;;;;5095983;28;20296;-88
2022/10/24 00:40:19;;;;;;;5.57;2.33;;;14.60;99.90;;;;;;5097222;28;20203;-87
2022/10/24 00:42:47;;;;;;;8.67;2.83;;;14.60;99.90;;;;;;5091229;28;20633;-87
2022/10/24 00:45:38;;;;;;;6.53;2.97;;;14.70;99.90;;;;;;5076521;28;20201;-89
2022/10/24 00:48:21;;;;;;;7.80;2.90;;;14.70;99.90;;;;;;5096042;28;20284;-87
2022/10/24 00:50:53;;;;;;;11.17;3.50;;;14.80;99.90;;;;;;5096463;28;20276;-86
2022/10/24 00:53:21;;;;;;;6.03;3.30;;;14.80;99.90;;;;;;5075359;28;20665;-86
2022/10/24 00:55:51;;;;;;;8.83;3.27;;;14.90;99.90;;;;;;5074326;28;20235;-86
2022/10/24 00:58:23;;;;;;;7.13;3.10;;;14.90;99.90;;;;;;5073770;28;20194;-80
2022/10/24 01:00:49;;;;;;;8.38;3.88;;;14.90;99.90;;;;;;5074387;28;20189;-81
2022/10/24 01:03:17;;;;;;;10.02;3.17;;;14.90;99.90;;;;;;5074377;28;20535;-80
2022/10/24 01:05:58;;;;;;;9.68;3.85;;;15.00;99.90;;;;;;5074031;28;20204;-81
2022/10/24 01:08:32;;;;;;;11.30;4.03;;;15.00;99.90;;;;;;5083154;28;20215;-80
2022/10/24 01:11:10;;;;;;;7.65;3.67;;;15.00;99.90;;;;;;5093554;28;20275;-82
2022/10/24 01:13:47;;;;;;;9.07;3.78;;;15.00;99.90;;;;;;5084936;28;20209;-84
2022/10/24 01:16:16;;;;;;;6.10;3.50;;;15.00;99.90;;;;;;5076633;28;20193;-82
2022/10/24 01:18:49;;;;;;;10.70;4.17;;;15.00;99.90;;;;;;5093457;28;20315;-79
2022/10/24 01:21:29;;;;;;;8.70;3.92;;;15.10;99.90;;;;;;5085887;28;20755;-80
2022/10/24 01:24:38;;;;;;;11.77;3.70;;;15.10;99.90;;;;;;5073308;28;20280;-82
2022/10/24 01:27:25;;;;;;;7.75;3.17;;;15.10;99.90;;;;;;4991822;28;20188;-80
2022/10/24 01:30:01;;;;;;;7.20;3.70;;;15.10;99.90;;;;;;5071471;28;20215;-80
2022/10/24 01:32:37;;;;;;;9.95;3.22;;;15.10;99.90;;;;;;5083634;28;20215;-79
2022/10/24 01:35:15;;;;;;;10.60;3.47;;;15.10;99.90;;;;;;5093480;28;20199;-81
2022/10/24 01:37:47;;;;;;;9.67;3.60;;;15.20;99.90;;;;;;5092891;28;20230;-85
2022/10/24 01:40:20;;;;;;;9.77;3.72;;;15.20;99.90;;;;;;5093044;28;20189;-81
2022/10/24 01:42:49;;;;;;;7.90;3.10;;;15.20;99.90;;;;;;5093192;28;20675;-79
2022/10/24 01:45:25;;;;;;;9.20;3.58;;;15.20;99.90;;;;;;5093166;28;20204;-80
2022/10/24 01:47:56;;;;;;;10.48;2.97;;;15.20;99.90;;;;;;5076952;28;20228;-81
2022/10/24 01:50:26;;;;;;;8.63;3.37;;;15.20;99.90;;;;;;5072836;28;20197;-79
2022/10/24 01:52:55;;;;;;;7.50;3.13;;;15.20;99.90;;;;;;5072777;28;20515;-79
2022/10/24 01:55:22;;;;;;;7.15;3.65;;;15.20;99.90;;;;;;5072803;28;20221;-81
2022/10/24 01:57:49;;;;;;;7.20;2.97;;;15.30;99.90;;;;;;5073034;28;20300;-82
2022/10/24 02:00:19;;;;;;;9.70;2.80;;;15.30;99.90;;;;;;5072422;28;20201;-80
2022/10/24 02:02:51;;;;;;;8.63;3.60;;;15.30;99.90;;;;;;5080653;28;20628;-78
2022/10/24 02:05:23;;;;;;;6.03;2.53;;;15.30;99.90;;;;;;5092775;28;20226;-80
2022/10/24 02:07:54;;;;;;;8.50;3.10;;;15.30;99.90;;;;;;5091960;28;20214;-79
2022/10/24 02:10:24;;;;;;;9.75;3.50;;;15.40;99.90;;;;;;5081887;28;20212;-85
2022/10/24 02:12:55;;;;;;;6.28;2.63;;;15.30;99.90;;;;;;5074419;28;20203;-87
2022/10/24 02:15:27;;;;;;;4.82;2.30;;;15.30;99.90;;;;;;5056750;28;20201;-86
2022/10/24 02:17:56;;;;;;;7.87;2.83;;;15.30;99.90;;;;;;5074660;28;20193;-81
2022/10/24 02:20:28;;;;;;;5.93;2.43;;;15.30;99.90;;;;;;5073749;28;20233;-86
2022/10/24 02:23:03;;;;;;;9.88;2.67;;;15.30;99.90;;;;;;5074060;28;20197;-84
2022/10/24 02:25:34;;;;;;;6.55;3.10;;;15.30;99.90;;;;;;5074492;28;20189;-84
2022/10/24 02:28:07;;;;;;;7.07;2.47;;;15.30;99.90;;;;;;5087814;28;20291;-86
2022/10/24 02:30:40;;;;;;;9.00;3.00;;;15.30;99.90;;;;;;5094691;28;20275;-84
2022/10/24 02:33:08;;;;;;;9.00;2.90;;;15.30;99.90;;;;;;5080520;28;20664;-82
2022/10/24 02:35:37;;;;;;;6.32;2.72;;;15.20;99.90;;;;;;5074043;28;20288;-82
2022/10/24 02:38:11;;;;;;;6.53;2.28;;;15.20;99.90;;;;;;5078820;28;20216;-85
2022/10/24 02:40:39;;;;;;;7.10;2.50;;;15.20;99.90;;;;;;5080390;28;20207;-86
2022/10/24 02:43:07;;;;;;;6.70;2.28;;;15.10;99.90;;;;;;5084140;28;20328;-82
2022/10/24 02:45:37;;;;;;;5.55;2.40;;;15.10;99.90;;;;;;5101012;28;20299;-84
2022/10/24 02:48:08;;;;;;;6.72;2.40;;;15.20;99.90;;;;;;5100012;28;20283;-85
2022/10/24 02:50:37;;;;;;;4.55;1.90;;;15.10;99.90;;;;;;5099822;28;20280;-79
2022/10/24 02:53:05;;;;;;;6.95;2.20;;;15.20;99.90;;;;;;5084449;28;20232;-79
2022/10/24 02:55:31;;;;;;;5.88;2.30;;;15.20;99.90;;;;;;5099435;28;20224;-85
2022/10/24 02:57:58;;;;;;;6.68;2.00;;;15.20;99.90;;;;;;5099388;28;20201;-86
2022/10/24 03:00:25;;;;;;;6.13;1.83;;;15.20;99.90;;;;;;5087811;28;20205;-87
2022/10/24 03:02:53;;;;;;;4.68;2.28;;;15.20;99.90;;;;;;5079345;28;20288;-88
2022/10/24 03:05:20;;;;;;;6.83;1.60;;;15.20;99.90;;;;;;5079491;28;20201;-85
2022/10/24 03:07:47;;;;;;;3.50;1.57;;;15.20;99.90;;;;;;5079391;28;20608;-86
2022/10/24 03:10:14;;;;;;;6.03;2.17;;;15.30;99.90;;;;;;5079595;28;20212;-86
2022/10/24 03:12:40;;;;;;;4.68;1.98;;;15.30;99.90;;;;;;5079010;28;20197;-84
2022/10/24 03:15:08;;;;;;;8.18;1.95;;;15.30;99.90;;;;;;5078994;28;20221;-87
2022/10/24 03:17:35;;;;;;;11.75;2.13;;;15.30;99.90;;;;;;5078631;28;20201;-86
2022/10/24 03:20:05;;;;;;;5.22;1.75;;;15.40;99.90;;;;;;5079248;28;20241;-88
2022/10/24 03:22:32;;;;;;;6.53;1.50;;;15.40;99.90;;;;;;5079368;28;20521;-86
2022/10/24 03:25:01;;;;;;;4.15;1.90;;;15.50;99.90;;;;;;5089706;28;20208;-86
2022/10/24 03:27:29;;;;;;;3.55;1.40;;;15.50;99.90;;;;;;5099825;28;20272;-86
2022/10/24 03:29:55;;;;;;;4.80;1.70;;;15.60;99.90;;;;;;5099567;28;20265;-90
2022/10/24 03:32:22;;;;;;;5.55;1.90;;;15.60;99.90;;;;;;5098866;28;20677;-85
2022/10/24 03:34:49;;;;;;;5.57;1.63;;;15.60;99.90;;;;;;5101654;28;20628;-86
2022/10/24 03:37:18;;;;;;;7.70;2.42;;;15.70;99.90;;;;;;5101639;28;20212;-85
2022/10/24 03:39:45;;;;;;;7.18;1.65;;;15.60;99.90;;;;;;5099453;28;20212;-85
2022/10/24 03:42:12;;;;;;;5.22;1.55;;;15.70;99.90;;;;;;5099660;28;20204;-85
2022/10/24 03:44:39;;;;;;;5.93;1.60;;;15.60;99.90;;;;;;5100541;28;20189;-83
2022/10/24 03:47:06;;;;;;;4.88;1.65;;;15.60;99.90;;;;;;5100363;28;20531;-84
2022/10/24 03:49:33;;;;;;;7.50;1.70;;;15.70;99.90;;;;;;5095194;28;20597;-86
2022/10/24 03:52:00;;;;;;;5.00;1.55;;;15.70;99.90;;;;;;5077408;28;20280;-87
2022/10/24 03:54:28;;;;;;;4.65;1.98;;;15.70;99.90;;;;;;5081908;28;20224;-83
2022/10/24 03:56:55;;;;;;;5.57;1.80;;;15.70;99.90;;;;;;5096978;28;20264;-83
2022/10/24 03:59:22;;;;;;;5.30;1.63;;;15.70;99.90;;;;;;5097258;28;20193;-85
2022/10/24 04:01:49;;;;;;;6.97;1.58;;;15.70;99.90;;;;;;5097268;28;20196;-86
2022/10/24 04:04:15;;;;;;;4.78;1.67;;;15.70;99.90;;;;;;5096964;28;20207;-87
2022/10/24 04:06:42;;;;;;;8.43;2.05;;;15.70;99.90;;;;;;5095394;28;20200;-82
2022/10/24 04:09:09;;;;;;;8.50;2.00;;;15.80;99.90;;;;;;5097106;28;20189;-83
2022/10/24 04:11:38;;;;;;;6.40;1.35;;;15.70;99.90;;;;;;5076504;28;20303;-83
2022/10/24 04:14:05;;;;;;;5.95;1.50;;;15.70;99.90;;;;;;5076534;28;20220;-85
2022/10/24 04:16:33;;;;;;;7.95;1.63;;;15.70;99.90;;;;;;5076888;28;20197;-85
2022/10/24 04:19:00;;;;;;;5.85;1.55;;;15.60;99.90;;;;;;5076692;28;20268;-95
2022/10/24 04:21:27;;;;;;;8.65;1.70;;;15.60;99.90;;;;;;5077569;28;20521;-88
2022/10/24 04:23:54;;;;;;;9.43;1.83;;;15.70;99.90;;;;;;5076934;28;20190;-83
2022/10/24 04:26:21;;;;;;;6.82;1.70;;;15.70;99.90;;;;;;5076771;28;20284;-88
2022/10/24 04:28:49;;;;;;;11.35;1.88;;;15.80;99.90;;;;;;5076845;28;20546;-84
2022/10/24 04:31:16;;;;;;;7.47;1.50;;;15.90;99.90;;;;;;5088199;28;20239;-88
2022/10/24 04:33:43;;;;;;;10.27;1.85;;;15.90;99.90;;;;;;5097082;28;20207;-88
2022/10/24 04:36:10;;;;;;;6.32;1.70;;;15.80;99.90;;;;;;5096289;28;20751;-91
2022/10/24 04:38:37;;;;;;;5.25;1.75;;;15.80;99.90;;;;;;5096744;28;20280;-88
2022/10/24 04:41:04;;;;;;;7.95;2.03;;;15.80;99.90;;;;;;5096639;28;20210;-87
2022/10/24 04:43:31;;;;;;;9.25;1.75;;;15.80;99.90;;;;;;5090919;28;20471;-88
2022/10/24 04:46:01;;;;;;;9.60;1.80;;;15.80;99.90;;;;;;5076788;28;20197;-94
2022/10/24 04:48:28;;;;;;;8.55;1.65;;;15.80;99.90;;;;;;5076501;28;20296;-88
2022/10/24 04:50:55;;;;;;;10.82;2.00;;;15.80;99.90;;;;;;5076019;28;20220;-85
2022/10/24 04:53:22;;;;;;;9.90;1.87;;;15.90;99.90;;;;;;5076192;28;20196;-91
2022/10/24 04:55:49;;;;;;;8.23;1.65;;;15.90;99.90;;;;;;5075809;28;20240;-86
2022/10/24 04:58:15;;;;;;;6.72;1.90;;;15.80;99.90;;;;;;5095801;28;20211;-92
2022/10/24 05:00:45;;;;;;;7.88;1.85;;;15.80;99.90;;;;;;5095659;28;20279;-88
2022/10/24 05:03:13;;;;;;;4.68;1.60;;;15.80;99.90;;;;;;5075594;28;20209;-88
2022/10/24 05:05:40;;;;;;;5.97;1.73;;;15.80;99.90;;;;;;5076458;28;20197;-85
2022/10/24 05:08:07;;;;;;;7.70;1.35;;;15.80;99.90;;;;;;5084848;28;20216;-87
2022/10/24 05:10:34;;;;;;;9.50;1.95;;;15.80;99.90;;;;;;5092812;28;20196;-87
2022/10/24 05:13:01;;;;;;;6.57;1.52;;;15.80;99.90;;;;;;5084657;28;20210;-86
2022/10/24 05:15:29;;;;;;;9.80;2.00;;;15.80;99.90;;;;;;5076038;28;20223;-85
2022/10/24 05:17:56;;;;;;;12.77;1.85;;;15.80;99.90;;;;;;5094152;28;20200;-87
2022/10/24 05:20:25;;;;;;;12.32;1.90;;;15.80;99.90;;;;;;5095883;28;20263;-89
2022/10/24 05:22:52;;;;;;;6.68;1.70;;;15.80;99.90;;;;;;5095941;28;20549;-83
2022/10/24 05:25:19;;;;;;;7.95;2.05;;;15.90;99.90;;;;;;5083952;28;20292;-89
2022/10/24 05:27:46;;;;;;;8.88;1.60;;;15.90;99.90;;;;;;5075466;28;20515;-86
2022/10/24 05:30:14;;;;;;;9.82;1.58;;;15.90;99.90;;;;;;5075290;28;20198;-90
2022/10/24 05:32:41;;;;;;;6.43;1.58;;;16.00;99.90;;;;;;5074706;28;20280;-85
2022/10/24 05:35:09;;;;;;;8.33;2.00;;;16.00;99.90;;;;;;5074997;28;20629;-83
2022/10/24 05:37:38;;;;;;;4.82;1.50;;;15.90;99.90;;;;;;5074890;28;20193;-89
2022/10/24 05:40:06;;;;;;;6.32;1.58;;;16.00;99.90;;;;;;5091358;28;20539;-81
2022/10/24 05:42:33;;;;;;;6.00;1.98;;;16.00;99.90;;;;;;5094960;28;20611;-87
2022/10/24 05:45:00;;;;;;;4.50;1.30;;;15.90;99.90;;;;;;5095179;28;20288;-85
2022/10/24 05:47:27;;;;;;;6.88;1.63;;;15.90;99.90;;;;;;5095321;28;20295;-85
2022/10/24 05:49:54;;;;;;;8.93;1.58;;;15.90;99.90;;;;;;5095393;28;20597;-89
2022/10/24 05:52:20;;;;;;;8.27;1.65;;;16.00;99.90;;;;;;5094479;28;20197;-88
2022/10/24 05:54:49;;;;;;;8.68;2.08;;;16.00;99.90;;;;;;5094933;28;20652;-86
2022/10/24 05:57:16;;;;;;;7.07;2.10;;;16.10;99.90;;;;;;5090956;28;20240;-83
2022/10/24 05:59:43;;;;;;;5.70;1.95;;;16.10;99.90;;;;;;5074569;28;20292;-87
2022/10/24 06:02:16;;;;;;;7.32;1.60;;;16.10;99.90;;;;;;5075025;28;20244;-83
2022/10/24 06:04:43;;;;;;;6.13;1.77;;;16.10;99.90;;;;;;5074942;28;20482;-85
2022/10/24 06:07:10;;;;;;;5.70;1.55;;;16.10;99.90;;;;;;5074534;28;20197;-86
2022/10/24 06:09:37;;;;;;;5.93;1.50;;;16.20;99.90;;;;;;5074775;28;20295;-82
2022/10/24 06:12:07;;;;;;;6.97;1.55;;;16.20;99.90;;;;;;5074697;28;20205;-86
2022/10/24 06:14:34;;;;;;;5.50;1.80;;;16.20;99.90;;;;;;5074531;28;20213;-84
2022/10/24 06:17:00;;;;;;;8.07;2.13;;;16.20;99.90;;;;;;5073837;28;20203;-80
2022/10/24 06:19:27;;;;;;;5.63;1.70;;;16.10;99.90;;;;;;5073904;28;20224;-85
2022/10/24 06:21:54;;;;;;;5.75;1.60;;;16.20;99.90;;;;;;5074741;28;20197;-84
2022/10/24 06:24:21;;;;;;;6.30;1.95;;;16.20;99.90;;;;;;5074396;28;20200;-85
2022/10/24 06:26:48;;;;;;;6.80;1.63;;;16.20;99.90;;;;;;5092152;28;20211;-83
2022/10/24 06:29:16;;;;;;;9.13;2.00;;;16.20;99.90;;;;;;5094076;28;20200;-85
2022/10/24 06:31:43;;;;;;;5.30;1.25;;;16.20;99.90;;;;;;5078414;28;20199;-84
2022/10/24 06:34:10;;;;;;;4.88;1.30;;;16.20;99.90;;;;;;5073018;28;20498;-82
2022/10/24 06:36:37;;;;;;;5.97;1.48;;;16.20;99.90;;;;;;5073463;28;20281;-87
2022/10/24 06:39:04;;;;;;;5.28;1.58;;;16.20;99.90;;;;;;5094563;28;20296;-86
2022/10/24 06:41:31;;;;;;;4.93;1.45;;;16.20;99.90;;;;;;5092486;28;20300;-84
2022/10/24 06:43:57;;;;;;;9.65;2.25;;;16.20;99.90;;;;;;5085450;28;20317;-83
2022/10/24 06:46:26;;;;;;;8.68;2.03;;;16.20;99.90;;;;;;5074486;28;20203;-84
2022/10/24 06:48:54;;;;;;;7.93;1.98;;;16.10;99.90;;;;;;5091077;28;20231;-83
2022/10/24 06:51:21;;;;;;;17.58;3.13;;;16.10;99.90;;;;;;5092525;28;20205;-80
2022/10/24 06:53:49;;;;;;;16.08;3.47;;;16.00;99.90;;;;;;5093549;28;20202;-83
2022/10/24 06:56:16;;;;;;;16.95;3.95;;;16.00;99.90;;;;;;5093455;28;20220;-82
2022/10/24 06:58:44;;;;;;;19.15;3.20;;;16.00;99.90;;;;;;5091733;28;20686;-84
2022/10/24 07:01:12;;;;;;;13.18;3.25;;;15.90;99.90;;;;;;5094035;28;20203;-83
2022/10/24 07:03:41;;;;;;;13.40;2.67;;;15.90;99.90;;;;;;5093706;28;20207;-82
2022/10/24 07:06:09;;;;;;;14.15;3.03;;;15.80;99.90;;;;;;5088023;28;20229;-86
2022/10/24 07:08:36;;;;;;;10.27;2.80;;;15.80;99.90;;;;;;5073732;28;20212;-84
2022/10/24 07:11:03;;;;;;;11.27;2.63;;;15.80;99.90;;;;;;5071776;28;20209;-81
2022/10/24 07:13:30;;;;;;;13.97;2.73;;;15.80;99.90;;;;;;5077881;28;20204;-80
2022/10/24 07:15:57;;;;;;;13.95;2.40;;;15.80;99.90;;;;;;5092741;28;20307;-82
2022/10/24 07:18:25;;;;;;;12.98;2.63;;;15.80;99.90;;;;;;5092599;28;20237;-84
2022/10/24 07:20:53;;;;;;;14.95;2.40;;;15.80;99.90;;;;;;5092204;28;20200;-84
2022/10/24 07:23:20;;;;;;;10.80;2.60;;;15.70;99.90;;;;;;5095117;28;20287;-85
2022/10/24 07:25:47;;;;;;;8.30;2.35;;;15.70;99.90;;;;;;5081026;28;20213;-82
2022/10/24 07:28:14;;;;;;;9.60;2.05;;;15.70;99.90;;;;;;5077528;28;20272;-81
2022/10/24 07:30:45;;;;;;;9.10;2.38;;;15.70;99.90;;;;;;5097779;28;20199;-82
2022/10/24 07:33:15;;;;;;;12.85;2.33;;;15.70;99.90;;;;;;5097894;28;20181;-81
2022/10/24 07:35:42;;;;;;;11.20;2.78;;;15.60;99.90;;;;;;5097656;28;20306;-84
2022/10/24 07:38:10;;;;;;;11.60;2.70;;;15.70;99.90;;;;;;5081914;28;20288;-83
2022/10/24 07:40:37;;;;;;;12.13;3.05;;;15.60;99.90;;;;;;5077698;28;20260;-84
2022/10/24 07:43:04;;;;;;;14.52;4.03;;;15.70;99.90;;;;;;5077091;28;20553;-84
2022/10/24 07:45:31;;;;;;;13.93;2.90;;;15.70;99.90;;;;;;5090559;28;20684;-83
2022/10/24 07:47:58;;;;;;;20.70;3.80;;;15.70;99.90;;;;;;5092146;28;20596;-83
2022/10/24 07:50:25;;;;;;;13.18;2.85;;;15.80;99.90;;;;;;5097306;28;20232;-83
2022/10/24 07:52:52;;;;;;;18.50;3.25;;;15.80;99.90;;;;;;5096301;28;20203;-83
2022/10/24 07:55:20;;;;;;;12.70;3.35;;;15.70;99.90;;;;;;5089217;28;20260;-85
2022/10/24 07:57:47;;;;;;;12.20;2.85;;;15.80;99.90;;;;;;5077396;28;20296;-83
2022/10/24 08:00:15;;;;;;;10.48;3.50;;;15.70;99.90;;;;;;5092861;28;20621;-82
2022/10/24 08:02:42;;;;;;;16.52;4.00;;;15.70;99.90;;;;;;5076656;28;20189;-81
2022/10/24 08:05:11;;;;;;;17.08;3.92;;;15.60;99.90;;;;;;5076261;28;20194;-82
2022/10/24 08:07:38;;;;;;;20.02;4.05;;;15.60;99.90;;;;;;5076893;28;20208;-81
2022/10/24 08:10:08;;;;;;;12.98;3.30;;;15.60;99.90;;;;;;5083269;28;20505;-85
2022/10/24 08:12:36;;;;;;;14.98;3.85;;;15.60;99.90;;;;;;5101715;28;20196;-78
2022/10/24 08:15:03;;;;;;;14.48;3.40;;;15.60;99.90;;;;;;5097985;28;20240;-81
2022/10/24 08:17:30;;;;;;;20.50;4.03;;;15.70;99.90;;;;;;5088304;28;20209;-84
2022/10/24 08:19:57;;;;;;;20.00;4.27;;;15.70;99.90;;;;;;5076180;28;20235;-83
2022/10/24 08:22:24;;;;;;;14.70;3.53;;;15.70;99.90;;;;;;5091618;28;20201;-85
2022/10/24 08:24:51;;;;;;;21.07;4.90;;;15.80;99.90;;;;;;5097158;28;20188;-85
2022/10/24 08:27:18;;;;;;;19.00;3.72;;;15.80;99.90;;;;;;5095532;28;20207;-81
2022/10/24 08:29:46;;;;;;;15.00;3.45;;;15.70;99.90;;;;;;5079047;28;20201;-80
2022/10/24 08:32:13;;;;;;;18.20;4.38;;;15.70;99.90;;;;;;5076137;28;20213;-80
2022/10/24 08:34:40;;;;;;;23.13;4.18;;;15.60;99.90;;;;;;5073219;28;20478;-79
2022/10/24 08:37:07;;;;;;;17.90;3.00;;;15.60;99.90;;;;;;5074330;28;20221;-78
2022/10/24 08:39:33;;;;;;;21.65;3.95;;;15.60;99.90;;;;;;5074044;28;20212;-81
2022/10/24 08:42:04;;;;;;;18.65;4.00;;;15.60;99.90;;;;;;5075010;28;20239;-82
2022/10/24 08:44:34;;;;;;;15.43;4.40;;;15.50;99.90;;;;;;5073711;28;20298;-79
2022/10/24 08:47:07;;;;;;;23.38;5.35;;;15.50;99.90;;;;;;5073961;28;20310;-83
2022/10/24 08:49:39;;;;;;;17.60;4.40;;;15.50;99.90;;;;;;5073248;28;20205;-78
2022/10/24 08:52:16;;;;;;;23.13;4.55;;;15.50;99.90;;;;;;5074037;28;20201;-78
2022/10/24 08:54:45;;;;;;;25.98;4.65;;;15.50;99.90;;;;;;5074692;28;20232;-82
2022/10/24 08:57:19;;;;;;;25.90;5.07;;;15.50;99.90;;;;;;5073906;28;20317;-78
2022/10/24 08:59:46;;;;;;;25.13;4.73;;;15.50;99.90;;;;;;5073809;28;20359;-79
2022/10/24 09:02:18;;;;;;;23.52;5.97;;;15.50;99.90;;;;;;5073620;28;20232;-78
2022/10/24 09:04:50;;;;;;;17.30;4.07;;;15.50;99.90;;;;;;5073795;28;20197;-76
2022/10/24 09:07:21;;;;;;;22.37;4.60;;;15.50;99.90;;;;;;5074458;28;20550;-79
2022/10/24 09:09:51;;;;;;;22.83;4.43;;;15.50;99.90;;;;;;5074251;28;20209;-83
2022/10/24 09:12:20;;;;;;;26.60;4.30;;;15.50;99.90;;;;;;5074773;28;20212;-80
2022/10/24 09:14:53;;;;;;;21.73;5.03;;;15.40;99.90;;;;;;5073673;28;20616;-79
2022/10/24 09:17:23;;;;;;;18.60;4.57;;;15.40;99.90;;;;;;5073319;28;20623;-81
2022/10/24 09:19:54;;;;;;;26.08;5.80;;;15.40;99.90;;;;;;5072780;28;20239;-79
2022/10/24 09:22:22;;;;;;;24.63;5.40;;;15.30;99.90;;;;;;5073074;28;20292;-79
2022/10/24 09:24:55;;;;;;;26.55;5.88;;;15.30;99.90;;;;;;5089729;28;20219;-82
2022/10/24 09:27:24;;;;;;;23.40;5.63;;;15.40;99.90;;;;;;5093638;28;20192;-79
2022/10/24 09:29:54;;;;;;;25.23;4.70;;;15.40;99.90;;;;;;5075847;28;20213;-77
2022/10/24 09:32:26;;;;;;;29.37;5.20;;;15.50;99.90;;;;;;5071331;28;20205;-78
2022/10/24 09:34:53;;;;;;;27.02;5.10;;;15.50;99.90;;;;;;5072008;28;20504;-78
2022/10/24 09:37:31;;;;;;;30.77;5.38;;;15.60;99.90;;;;;;5072013;28;20328;-80
2022/10/24 09:40:07;;;;;;;23.27;5.07;;;15.50;99.90;;;;;;5089061;28;20204;-81
2022/10/24 09:42:36;;;;;;;25.50;4.50;;;15.50;99.90;;;;;;5083819;28;20207;-81
2022/10/24 09:45:19;;;;;;;27.48;5.07;;;15.50;99.90;;;;;;5054309;28;20205;-80
2022/10/24 09:47:55;;;;;;;25.37;4.83;;;15.60;99.90;;;;;;5071657;28;20289;-83
2022/10/24 09:50:23;;;;;;;25.40;5.72;;;15.60;99.90;;;;;;5073106;28;20276;-86
2022/10/24 09:52:52;;;;;;;24.95;4.82;;;15.70;99.90;;;;;;5080039;28;20687;-88
2022/10/24 09:55:23;;;;;;;22.67;4.60;;;15.70;99.90;;;;;;5093458;28;20235;-86
2022/10/24 09:57:53;;;;;;;24.77;5.97;;;15.70;99.90;;;;;;5093109;28;20204;-82
2022/10/24 10:00:24;;;;;;;24.17;4.85;;;15.70;99.90;;;;;;5077950;28;20216;-87
2022/10/24 10:03:01;;;;;;;21.40;4.10;;;15.80;99.90;;;;;;5073479;28;20196;-84
2022/10/24 10:05:41;;;;;;;16.95;3.92;;;15.80;99.90;;;;;;5088125;28;20253;-86
2022/10/24 10:08:12;;;;;;;22.83;5.32;;;15.70;99.90;;;;;;5094420;28;20504;-80
2022/10/24 10:10:40;;;;;;;27.77;4.95;;;15.80;99.90;;;;;;5094426;28;20637;-87
2022/10/24 10:13:22;;;;;;;21.90;4.25;;;15.70;99.90;;;;;;5091700;28;20208;-83
2022/10/24 10:15:52;;;;;;;19.38;4.55;;;15.70;99.90;;;;;;5076766;28;20835;-84
2022/10/24 10:18:42;;;;;;;21.98;4.38;;;15.80;99.90;;;;;;5087314;28;20619;-83
2022/10/24 10:21:15;;;;;;;17.67;3.72;;;15.90;99.90;;;;;;5088202;28;20296;-85
2022/10/24 10:23:44;;;;;;;22.20;4.07;;;16.00;99.90;;;;;;5072458;28;20237;-86
2022/10/24 10:26:18;;;;;;;20.92;5.85;;;16.00;99.90;;;;;;5092079;28;20568;-85
2022/10/24 10:28:56;;;;;;;17.98;3.88;;;15.90;99.90;;;;;;5092593;28;20192;-85
2022/10/24 10:31:26;;;;;;;23.10;4.43;;;16.00;99.90;;;;;;5072460;28;20212;-88
2022/10/24 10:34:18;;;;;;;22.43;4.47;;;15.90;99.90;;;;;;5071812;28;20189;-82
2022/10/24 10:36:58;;;;;;;22.60;4.83;;;15.90;99.90;;;;;;5087410;28;20635;-94
2022/10/24 10:39:50;;;;;;;15.57;4.53;;;15.90;99.90;;;;;;5092265;28;20580;-82
2022/10/24 10:42:21;;;;;;;17.13;3.97;;;15.90;99.90;;;;;;5076785;28;20205;-85
2022/10/24 10:44:59;;;;;;;22.00;5.53;;;15.80;99.90;;;;;;5073049;28;20582;-83
2022/10/24 10:47:35;;;;;;;26.42;4.60;;;15.80;99.90;;;;;;5072425;28;20203;-88
2022/10/24 10:50:20;;;;;;;19.08;4.53;;;15.70;99.90;;;;;;5073565;28;20185;-86
2022/10/24 10:52:49;;;;;;;27.83;5.75;;;15.70;99.90;;;;;;5092432;28;20199;-89
2022/10/24 10:55:28;;;;;;;29.70;6.30;;;15.60;99.90;;;;;;5083294;28;20233;-83
2022/10/24 10:58:04;;;;;;;28.27;4.90;;;15.60;99.90;;;;;;5086623;28;20291;-86
2022/10/24 11:00:39;;;;;;;31.23;5.70;;;15.60;99.90;;;;;;5076658;28;20200;-87
2022/10/24 11:03:21;;;;;;;25.33;6.33;;;15.60;99.90;;;;;;5092570;28;20283;-90
2022/10/24 11:06:14;;;;;;;18.43;4.33;;;15.70;99.90;;;;;;5088949;28;20200;-86
2022/10/24 11:08:56;;;;;;;23.98;5.18;;;15.70;99.90;;;;;;5077639;28;20217;-92
2022/10/24 11:11:27;;;;;;;24.83;5.27;;;15.60;99.90;;;;;;5077301;28;20204;-90
2022/10/24 11:14:00;;;;;;;20.27;4.05;;;15.70;99.90;;;;;;5095280;28;20219;-90
2022/10/24 11:16:28;;;;;;;26.55;5.45;;;15.80;99.90;;;;;;5097408;28;20302;-89
2022/10/24 11:18:59;;;;;;;19.70;4.30;;;16.10;99.90;;;;;;5080003;28;20256;-89
2022/10/24 11:21:32;;;;;;;17.87;3.37;;;16.20;99.90;;;;;;5077844;28;20206;-92
2022/10/24 11:24:04;;;;;;;21.88;4.30;;;16.20;99.90;;;;;;5075877;28;20288;-89
2022/10/24 11:26:33;;;;;;;20.77;4.53;;;16.10;99.90;;;;;;5077673;28;20200;-79
2022/10/24 11:29:09;;;;;;;21.40;5.18;;;16.10;99.90;;;;;;5077510;28;20208;-85
2022/10/24 11:31:40;;;;;;;20.17;4.90;;;16.10;99.90;;;;;;5094017;28;20198;-86
2022/10/24 11:34:14;;;;;;;17.60;4.30;;;16.00;99.90;;;;;;5096985;28;20209;-86
2022/10/24 11:36:46;;;;;;;21.77;5.43;;;15.90;99.90;;;;;;5095047;28;20234;-85
2022/10/24 11:39:19;;;;;;;23.60;5.13;;;15.90;99.90;;;;;;5085750;28;20200;-88
2022/10/24 11:42:01;;;;;;;20.53;4.47;;;15.90;99.90;;;;;;5079975;28;20220;-84
2022/10/24 11:44:36;;;;;;;17.63;4.80;;;15.90;99.90;;;;;;5097671;28;20189;-86
2022/10/24 11:47:14;;;;;;;17.13;4.07;;;15.90;99.90;;;;;;5097004;28;20206;-85
2022/10/24 11:49:45;;;;;;;16.63;3.80;;;15.90;99.90;;;;;;5096321;28;20292;-86
2022/10/24 11:52:22;;;;;;;17.52;4.28;;;15.90;99.90;;;;;;5081321;28;20193;-85
2022/10/24 11:54:55;;;;;;;16.85;3.20;;;16.00;99.90;;;;;;5092376;28;20224;-90
2022/10/24 11:57:25;;;;;;;15.95;3.90;;;15.90;99.90;;;;;;5080010;28;20643;-91
2022/10/24 11:59:53;;;;;;;22.25;4.20;;;15.90;99.90;;;;;;5084079;28;20613;-90
2022/10/24 12:02:52;;;;;;;16.17;3.83;;;15.90;99.90;;;;;;5077272;28;20612;-93
2022/10/24 12:05:48;;;;;;;18.90;3.97;;;15.90;99.90;;;;;;5090268;28;20207;-89
2022/10/24 12:08:45;;;;;;;18.37;3.40;;;15.90;99.90;;;;;;5085856;28;20192;-92
2022/10/24 12:11:37;;;;;;;11.27;2.90;;;15.90;99.90;;;;;;5095229;28;20207;-91
2022/10/24 12:14:34;;;;;;;15.47;3.77;;;15.90;99.90;;;;;;5095854;28;20614;-86
2022/10/24 12:17:16;;;;;;;17.90;3.40;;;16.10;99.90;;;;;;5065951;28;20221;-90
2022/10/24 12:19:45;;;;;;;12.40;2.88;;;16.10;99.90;;;;;;5093135;28;20236;-91
2022/10/24 12:22:20;;;;;;;13.90;3.22;;;16.10;99.90;;;;;;5095301;28;20215;-85
2022/10/24 12:24:49;;;;;;;16.45;3.40;;;16.00;99.90;;;;;;5095873;28;20494;-87
2022/10/24 12:27:30;;;;;;;15.50;3.83;;;16.00;99.90;;;;;;5093740;28;20211;-86
2022/10/24 12:30:02;;;;;;;14.10;3.95;;;15.90;99.90;;;;;;5096553;28;20264;-90
2022/10/24 12:32:38;;;;;;;23.27;3.53;;;16.00;99.90;;;;;;5095548;28;20200;-86
2022/10/24 12:35:36;;;;;;;14.30;4.15;;;15.90;99.90;;;;;;5096311;28;20184;-86
2022/10/24 12:38:15;;;;;;;15.33;3.93;;;15.90;99.90;;;;;;5094887;28;20269;-87
2022/10/24 12:41:08;;;;;;;11.17;3.37;;;15.90;99.90;;;;;;5096452;28;20630;-87
2022/10/24 12:43:36;;;;;;;18.03;3.80;;;15.90;99.90;;;;;;5076245;28;20212;-87
2022/10/24 12:46:53;;;;;;;18.90;3.40;;;15.90;99.90;;;;;;5075427;28;20590;-90
2022/10/24 12:49:27;;;;;;;13.27;3.25;;;16.10;99.90;;;;;;5076346;28;20268;-87
2022/10/24 12:51:54;;;;;;;19.23;3.50;;;16.30;99.90;;;;;;5080497;28;20193;-87
2022/10/24 12:54:40;;;;;;;17.47;3.60;;;16.40;99.90;;;;;;5076484;28;20227;-85
2022/10/24 12:57:36;;;;;;;16.38;4.22;;;16.50;99.90;;;;;;5092839;28;20295;-86
2022/10/24 13:00:22;;;;;;;15.02;3.30;;;16.50;99.90;;;;;;5077151;28;20203;-86